createdAt,value
2018-08-06T00:02:04.136Z,19.39
2018-08-06T00:04:32.839Z,19.43
2018-08-06T00:07:00.889Z,19.46
2018-08-06T00:09:29.007Z,19.49
2018-08-06T00:11:57.053Z,19.54
2018-08-06T00:14:25.100Z,19.58
2018-08-06T00:16:53.502Z,19.60
2018-08-06T00:19:21.560Z,19.57
2018-08-06T00:21:49.672Z,19.56
2018-08-06T00:24:17.776Z,19.53
2018-08-06T00:26:45.833Z,19.49
2018-08-06T00:29:13.880Z,19.44
2018-08-06T00:31:41.928Z,19.40
2018-08-06T00:34:10.016Z,19.35
2018-08-06T00:36:38.171Z,19.31
2018-08-06T00:39:08.592Z,19.26
2018-08-06T00:41:36.707Z,19.20
2018-08-06T00:44:05.228Z,19.16
2018-08-06T00:46:33.328Z,19.12
2018-08-06T00:49:01.430Z,19.09
2018-08-06T00:51:29.650Z,19.03
2018-08-06T00:53:58.223Z,18.99
2018-08-06T00:56:26.311Z,18.94
2018-08-06T00:58:54.385Z,18.90
2018-08-06T01:01:22.471Z,18.87
2018-08-06T01:03:50.807Z,18.83
2018-08-06T01:06:18.875Z,18.79
2018-08-06T01:08:46.912Z,18.76
2018-08-06T01:11:15.006Z,18.73
2018-08-06T01:13:43.044Z,18.70
2018-08-06T01:16:11.092Z,18.67
2018-08-06T01:18:39.168Z,18.64
2018-08-06T01:21:07.207Z,18.58
2018-08-06T01:23:35.253Z,18.54
2018-08-06T01:26:03.297Z,18.49
2018-08-06T01:28:31.369Z,18.46
2018-08-06T01:30:59.403Z,18.43
2018-08-06T01:33:27.464Z,18.41
2018-08-06T01:35:55.495Z,18.36
2018-08-06T01:38:23.544Z,18.33
2018-08-06T01:40:51.615Z,18.29
2018-08-06T01:43:19.664Z,18.26
2018-08-06T01:45:47.728Z,18.21
2018-08-06T01:48:15.819Z,18.17
2018-08-06T01:50:43.843Z,18.13
2018-08-06T01:53:11.875Z,18.11
2018-08-06T01:55:39.912Z,18.07
2018-08-06T01:58:07.963Z,18.05
2018-08-06T02:00:36.008Z,18.02
2018-08-06T02:03:04.056Z,18.00
2018-08-06T02:05:32.121Z,17.95
2018-08-06T02:08:00.160Z,17.93
2018-08-06T02:10:28.222Z,17.90
2018-08-06T02:12:56.308Z,17.86
2018-08-06T02:15:24.348Z,17.84
2018-08-06T02:17:52.407Z,17.83
2018-08-06T02:20:20.435Z,17.81
2018-08-06T02:22:48.859Z,17.80
2018-08-06T02:25:16.924Z,17.78
2018-08-06T02:27:45.064Z,17.77
2018-08-06T02:30:14.392Z,17.74
2018-08-06T02:32:42.489Z,17.72
2018-08-06T02:35:12.645Z,17.69
2018-08-06T02:37:41.580Z,17.64
2018-08-06T02:40:12.013Z,17.61
2018-08-06T02:42:40.064Z,17.59
2018-08-06T02:45:09.056Z,17.55
2018-08-06T02:47:37.648Z,17.52
2018-08-06T02:50:06.548Z,17.49
2018-08-06T02:52:34.608Z,17.48
2018-08-06T02:55:02.968Z,17.45
2018-08-06T02:57:31.051Z,17.41
2018-08-06T02:59:59.083Z,17.37
2018-08-06T03:02:27.140Z,17.36
2018-08-06T03:04:55.229Z,17.34
2018-08-06T03:07:23.272Z,17.33
2018-08-06T03:09:51.364Z,17.31
2018-08-06T03:12:19.399Z,17.29
2018-08-06T03:14:47.499Z,17.29
2018-08-06T03:17:15.536Z,17.25
2018-08-06T03:19:43.577Z,17.25
2018-08-06T03:22:11.612Z,17.22
2018-08-06T03:24:39.683Z,17.20
2018-08-06T03:27:07.720Z,17.18
2018-08-06T03:29:35.779Z,17.16
2018-08-06T03:32:03.803Z,17.13
2018-08-06T03:34:31.872Z,17.11
2018-08-06T03:36:59.905Z,17.08
2018-08-06T03:39:28.016Z,17.05
2018-08-06T03:41:56.064Z,17.03
2018-08-06T03:44:24.129Z,17.00
2018-08-06T03:46:52.199Z,16.97
2018-08-06T03:49:20.300Z,16.95
2018-08-06T03:51:48.341Z,16.93
2018-08-06T03:54:16.399Z,16.92
2018-08-06T03:56:44.464Z,16.90
2018-08-06T03:59:12.510Z,16.89
2018-08-06T04:01:40.552Z,16.87
2018-08-06T04:04:08.600Z,16.87
2018-08-06T04:06:36.633Z,16.87
2018-08-06T04:09:06.605Z,16.88
2018-08-06T04:11:34.644Z,16.87
2018-08-06T04:14:02.723Z,16.85
2018-08-06T04:16:35.424Z,16.84
2018-08-06T04:19:03.482Z,16.84
2018-08-06T04:21:31.564Z,16.83
2018-08-06T04:23:59.609Z,16.82
2018-08-06T04:26:27.647Z,16.82
2018-08-06T04:28:55.688Z,16.83
2018-08-06T04:31:23.755Z,16.84
2018-08-06T04:33:51.833Z,16.85
2018-08-06T04:36:19.864Z,16.86
2018-08-06T04:38:48.167Z,16.87
2018-08-06T04:41:16.232Z,16.88
2018-08-06T04:43:44.316Z,16.90
2018-08-06T04:46:12.377Z,16.92
2018-08-06T04:48:40.424Z,16.95
2018-08-06T04:51:08.488Z,16.99
2018-08-06T04:53:36.564Z,17.03
2018-08-06T04:56:04.616Z,17.07
2018-08-06T04:58:32.669Z,17.13
2018-08-06T05:01:00.719Z,17.17
2018-08-06T05:03:28.798Z,17.23
2018-08-06T05:05:56.840Z,17.29
2018-08-06T05:08:24.876Z,17.35
2018-08-06T05:10:52.920Z,17.42
2018-08-06T05:13:20.983Z,17.50
2018-08-06T05:15:49.059Z,17.60
2018-08-06T05:18:17.124Z,17.70
2018-08-06T05:20:45.192Z,17.81
2018-08-06T05:23:13.221Z,17.92
2018-08-06T05:25:41.298Z,18.03
2018-08-06T05:28:09.341Z,18.13
2018-08-06T05:30:37.400Z,18.26
2018-08-06T05:33:05.432Z,18.37
2018-08-06T05:35:33.501Z,18.48
2018-08-06T05:38:01.539Z,18.58
2018-08-06T05:40:29.588Z,18.69
2018-08-06T05:42:57.622Z,18.80
2018-08-06T05:45:25.708Z,18.91
2018-08-06T05:47:53.748Z,18.99
2018-08-06T05:50:21.804Z,19.08
2018-08-06T05:52:49.831Z,19.17
2018-08-06T05:55:17.919Z,19.26
2018-08-06T05:57:45.963Z,19.35
2018-08-06T06:00:16.503Z,19.42
2018-08-06T06:02:45.208Z,19.48
2018-08-06T06:05:13.259Z,19.58
2018-08-06T06:07:41.752Z,19.65
2018-08-06T06:10:11.261Z,19.76
2018-08-06T06:12:39.307Z,19.87
2018-08-06T06:15:12.544Z,19.98
2018-08-06T06:17:41.111Z,20.06
2018-08-06T06:20:09.851Z,20.20
2018-08-06T06:22:37.928Z,20.33
2018-08-06T06:25:08.198Z,20.46
2018-08-06T06:27:36.564Z,20.59
2018-08-06T06:30:06.108Z,20.67
2018-08-06T06:32:34.239Z,20.77
2018-08-06T06:35:02.324Z,20.89
2018-08-06T06:37:30.477Z,21.01
2018-08-06T06:39:58.550Z,21.11
2018-08-06T06:42:26.692Z,21.22
2018-08-06T06:44:54.795Z,21.36
2018-08-06T06:47:22.832Z,21.48
2018-08-06T06:49:50.927Z,21.63
2018-08-06T06:52:19.020Z,21.72
2018-08-06T06:54:47.104Z,21.87
2018-08-06T06:57:15.560Z,22.02
2018-08-06T06:59:43.836Z,22.16
2018-08-06T07:02:12.259Z,22.32
2018-08-06T07:04:40.372Z,22.46
2018-08-06T07:07:08.484Z,22.66
2018-08-06T07:09:36.711Z,22.87
2018-08-06T07:12:05.111Z,23.08
2018-08-06T07:14:33.208Z,23.31
2018-08-06T07:17:01.285Z,23.47
2018-08-06T07:19:29.452Z,23.63
2018-08-06T07:21:57.506Z,23.88
2018-08-06T07:24:25.552Z,24.11
2018-08-06T07:26:53.640Z,24.29
2018-08-06T07:29:21.702Z,24.44
2018-08-06T07:31:49.757Z,24.61
2018-08-06T07:34:17.819Z,24.79
2018-08-06T07:36:45.884Z,24.96
2018-08-06T07:39:13.941Z,25.14
2018-08-06T07:41:42.011Z,25.35
2018-08-06T07:44:10.081Z,25.63
2018-08-06T07:46:38.257Z,25.78
2018-08-06T07:49:06.418Z,26.00
2018-08-06T07:51:34.647Z,26.18
2018-08-06T07:54:02.743Z,26.32
2018-08-06T07:56:30.792Z,26.42
2018-08-06T07:58:58.896Z,26.59
2018-08-06T08:01:26.956Z,26.83
2018-08-06T08:03:55.068Z,26.96
2018-08-06T08:06:23.170Z,27.16
2018-08-06T08:08:51.192Z,27.31
2018-08-06T08:11:19.240Z,27.47
2018-08-06T08:13:47.284Z,27.56
2018-08-06T08:16:15.340Z,27.73
2018-08-06T08:18:43.383Z,27.87
2018-08-06T08:21:11.754Z,28.02
2018-08-06T08:23:39.796Z,28.15
2018-08-06T08:26:07.868Z,28.35
2018-08-06T08:28:35.980Z,28.45
2018-08-06T08:31:04.063Z,28.55
2018-08-06T08:33:32.099Z,28.79
2018-08-06T08:36:00.143Z,29.04
2018-08-06T08:38:28.195Z,29.31
2018-08-06T08:40:56.240Z,29.59
2018-08-06T08:43:24.288Z,29.83
2018-08-06T08:45:52.344Z,30.00
2018-08-06T08:48:20.404Z,30.18
2018-08-06T08:50:48.468Z,30.32
2018-08-06T08:53:16.508Z,30.60
2018-08-06T08:55:44.582Z,30.91
2018-08-06T08:58:12.695Z,31.07
2018-08-06T09:00:40.748Z,31.23
2018-08-06T09:03:08.813Z,31.29
2018-08-06T09:05:36.860Z,31.30
2018-08-06T09:08:04.927Z,31.53
2018-08-06T09:10:32.973Z,31.73
2018-08-06T09:13:01.072Z,31.87
2018-08-06T09:15:29.143Z,32.01
2018-08-06T09:17:57.202Z,32.10
2018-08-06T09:20:26.012Z,32.30
2018-08-06T09:22:54.090Z,32.45
2018-08-06T09:25:22.140Z,32.46
2018-08-06T09:27:51.408Z,32.47
2018-08-06T09:30:21.735Z,32.44
2018-08-06T09:32:51.240Z,32.57
2018-08-06T09:35:19.804Z,32.80
2018-08-06T09:37:47.912Z,33.06
2018-08-06T09:40:17.367Z,33.27
2018-08-06T09:42:46.091Z,33.38
2018-08-06T09:45:15.265Z,33.51
2018-08-06T09:47:44.568Z,33.71
2018-08-06T09:50:13.252Z,33.93
2018-08-06T09:52:42.148Z,34.06
2018-08-06T09:55:12.376Z,34.13
2018-08-06T09:57:40.760Z,34.27
2018-08-06T10:01:21.282Z,34.35
2018-08-06T10:03:49.361Z,34.57
2018-08-06T10:06:17.485Z,34.51
2018-08-06T10:08:45.532Z,34.48
2018-08-06T10:11:13.589Z,34.63
2018-08-06T10:13:41.692Z,34.83
2018-08-06T10:16:09.752Z,35.02
2018-08-06T10:18:37.820Z,35.06
2018-08-06T10:21:06.131Z,35.16
2018-08-06T10:23:34.245Z,35.25
2018-08-06T10:26:02.299Z,35.25
2018-08-06T10:28:30.384Z,35.43
2018-08-06T10:30:58.588Z,35.43
2018-08-06T10:33:26.687Z,35.51
2018-08-06T10:35:54.744Z,35.61
2018-08-06T10:38:22.821Z,35.69
2018-08-06T10:40:50.875Z,35.68
2018-08-06T10:43:18.935Z,35.79
2018-08-06T10:45:46.975Z,35.85
2018-08-06T10:48:15.043Z,35.88
2018-08-06T10:50:43.080Z,35.89
2018-08-06T10:53:11.164Z,35.98
2018-08-06T10:55:39.236Z,36.06
2018-08-06T10:58:07.292Z,36.22
2018-08-06T11:00:35.379Z,36.24
2018-08-06T11:03:03.453Z,36.16
2018-08-06T11:05:31.488Z,36.15
2018-08-06T11:07:59.572Z,35.95
2018-08-06T11:10:27.620Z,35.91
2018-08-06T11:12:55.703Z,36.14
2018-08-06T11:15:25.131Z,36.40
2018-08-06T11:17:55.151Z,36.54
2018-08-06T11:20:23.912Z,36.75
2018-08-06T11:22:51.983Z,36.64
2018-08-06T11:25:21.425Z,36.47
2018-08-06T11:27:49.655Z,36.65
2018-08-06T11:30:19.405Z,36.67
2018-08-06T11:32:48.194Z,36.52
2018-08-06T11:35:16.572Z,36.49
2018-08-06T11:37:44.660Z,36.52
2018-08-06T11:40:13.960Z,36.41
2018-08-06T11:42:42.763Z,36.39
2018-08-06T11:45:13.044Z,36.46
2018-08-06T11:47:41.118Z,36.52
2018-08-06T11:50:09.597Z,36.57
2018-08-06T11:52:37.669Z,36.68
2018-08-06T11:55:06.456Z,36.89
2018-08-06T11:57:34.549Z,37.10
2018-08-06T12:00:02.912Z,37.17
2018-08-06T12:02:30.971Z,37.07
2018-08-06T12:04:59.043Z,37.15
2018-08-06T12:07:27.205Z,37.20
2018-08-06T12:09:55.289Z,37.22
2018-08-06T12:12:23.372Z,37.16
2018-08-06T12:14:51.445Z,37.17
2018-08-06T12:17:19.507Z,37.10
2018-08-06T12:19:47.584Z,36.99
2018-08-06T12:22:15.637Z,37.11
2018-08-06T12:24:43.740Z,37.17
2018-08-06T12:27:11.823Z,37.17
2018-08-06T12:29:39.921Z,37.35
2018-08-06T12:32:07.996Z,37.51
2018-08-06T12:34:36.079Z,37.53
2018-08-06T12:37:04.130Z,37.59
2018-08-06T12:39:32.248Z,37.66
2018-08-06T12:42:00.328Z,37.75
2018-08-06T12:44:28.391Z,37.80
2018-08-06T12:46:56.448Z,37.72
2018-08-06T12:49:24.547Z,37.68
2018-08-06T12:51:52.602Z,37.73
2018-08-06T12:54:20.673Z,37.86
2018-08-06T12:56:48.753Z,38.05
2018-08-06T12:59:16.816Z,38.22
2018-08-06T13:01:44.893Z,38.25
2018-08-06T13:04:12.994Z,38.23
2018-08-06T13:06:42.946Z,38.31
2018-08-06T13:09:11.123Z,38.36
2018-08-06T13:11:39.858Z,38.12
2018-08-06T13:14:08.668Z,37.66
2018-08-06T13:16:37.497Z,37.51
2018-08-06T13:19:06.425Z,37.60
2018-08-06T13:21:34.964Z,37.79
2018-08-06T13:24:04.151Z,38.00
2018-08-06T13:26:34.378Z,37.99
2018-08-06T13:29:03.003Z,38.05
2018-08-06T13:31:31.130Z,38.11
2018-08-06T13:33:59.252Z,38.07
2018-08-06T13:36:27.420Z,38.11
2018-08-06T13:38:55.593Z,38.08
2018-08-06T13:41:23.733Z,37.97
2018-08-06T13:43:51.826Z,38.05
2018-08-06T13:46:19.967Z,38.14
2018-08-06T13:48:48.055Z,38.28
2018-08-06T13:51:16.238Z,38.28
2018-08-06T13:53:44.373Z,38.20
2018-08-06T13:56:12.541Z,38.27
2018-08-06T13:58:40.671Z,38.24
2018-08-06T14:01:08.916Z,38.34
2018-08-06T14:03:37.114Z,38.39
2018-08-06T14:06:05.312Z,38.37
2018-08-06T14:08:33.532Z,38.45
2018-08-06T14:11:01.689Z,38.50
2018-08-06T14:13:29.859Z,38.60
2018-08-06T14:15:57.995Z,38.73
2018-08-06T14:18:26.130Z,38.63
2018-08-06T14:20:54.217Z,38.80
2018-08-06T14:23:22.365Z,38.80
2018-08-06T14:25:50.561Z,38.80
2018-08-06T14:28:18.712Z,38.42
2018-08-06T14:30:46.868Z,38.20
2018-08-06T14:33:14.996Z,38.18
2018-08-06T14:35:43.080Z,38.22
2018-08-06T14:38:11.132Z,38.28
2018-08-06T14:40:39.286Z,38.22
2018-08-06T14:43:07.455Z,38.19
2018-08-06T14:45:36.076Z,38.09
2018-08-06T14:48:04.300Z,38.14
2018-08-06T14:50:32.371Z,38.10
2018-08-06T14:53:00.467Z,38.16
2018-08-06T14:55:28.561Z,38.04
2018-08-06T14:57:56.738Z,37.93
2018-08-06T15:00:24.876Z,38.05
2018-08-06T15:02:53.716Z,38.23
2018-08-06T15:05:21.892Z,38.30
2018-08-06T15:07:49.980Z,38.01
2018-08-06T15:10:18.067Z,37.88
2018-08-06T15:12:46.206Z,37.70
2018-08-06T15:15:15.385Z,37.56
2018-08-06T15:17:44.084Z,37.33
2018-08-06T15:20:13.845Z,36.93
2018-08-06T15:22:41.932Z,36.65
2018-08-06T15:25:16.849Z,36.37
2018-08-06T15:27:44.956Z,36.37
2018-08-06T15:30:13.077Z,36.45
2018-08-06T15:32:41.180Z,36.48
2018-08-06T15:35:10.083Z,36.46
2018-08-06T15:37:39.211Z,36.43
2018-08-06T15:40:10.322Z,36.33
2018-08-06T15:42:38.450Z,36.32
2018-08-06T15:45:06.712Z,36.07
2018-08-06T15:47:34.815Z,35.84
2018-08-06T15:50:02.908Z,35.72
2018-08-06T15:52:31.052Z,35.68
2018-08-06T15:54:59.164Z,35.45
2018-08-06T15:57:27.265Z,35.33
2018-08-06T15:59:55.323Z,35.22
2018-08-06T16:02:23.401Z,35.21
2018-08-06T16:04:51.592Z,35.08
2018-08-06T16:07:19.681Z,34.96
2018-08-06T16:09:47.803Z,34.90
2018-08-06T16:12:15.892Z,34.82
2018-08-06T16:14:44.016Z,34.84
2018-08-06T16:17:12.146Z,34.82
2018-08-06T16:19:40.267Z,34.65
2018-08-06T16:22:09.197Z,34.48
2018-08-06T16:24:37.290Z,34.36
2018-08-06T16:27:05.412Z,34.24
2018-08-06T16:29:33.784Z,34.19
2018-08-06T16:32:01.894Z,34.13
2018-08-06T16:34:29.993Z,34.07
2018-08-06T16:36:58.115Z,34.02
2018-08-06T16:39:26.196Z,34.00
2018-08-06T16:41:54.276Z,33.94
2018-08-06T16:44:22.364Z,33.95
2018-08-06T16:46:50.617Z,33.87
2018-08-06T16:49:18.599Z,33.80
2018-08-06T16:51:46.675Z,33.74
2018-08-06T16:54:14.807Z,33.67
2018-08-06T16:56:42.910Z,33.69
2018-08-06T16:59:11.040Z,33.67
2018-08-06T17:01:39.110Z,33.63
2018-08-06T17:04:07.239Z,33.61
2018-08-06T17:06:35.371Z,33.59
2018-08-06T17:09:04.044Z,33.58
2018-08-06T17:11:32.178Z,33.60
2018-08-06T17:14:00.357Z,33.62
2018-08-06T17:16:28.432Z,33.59
2018-08-06T17:18:56.540Z,33.53
2018-08-06T17:21:24.599Z,33.47
2018-08-06T17:23:52.683Z,33.42
2018-08-06T17:26:20.752Z,33.34
2018-08-06T17:28:48.824Z,33.32
2018-08-06T17:31:16.888Z,33.29
2018-08-06T17:33:44.964Z,33.24
2018-08-06T17:36:13.123Z,33.20
2018-08-06T17:38:41.213Z,33.15
2018-08-06T17:41:09.271Z,33.08
2018-08-06T17:43:37.327Z,33.00
2018-08-06T17:46:05.597Z,32.93
2018-08-06T17:48:33.659Z,32.82
2018-08-06T17:51:01.717Z,32.68
2018-08-06T17:53:29.764Z,32.57
2018-08-06T17:55:57.832Z,32.44
2018-08-06T17:58:25.963Z,32.30
2018-08-06T18:00:54.122Z,32.16
2018-08-06T18:03:22.312Z,32.01
2018-08-06T18:05:50.377Z,31.87
2018-08-06T18:08:18.479Z,31.73
2018-08-06T18:10:46.580Z,31.61
2018-08-06T18:13:14.686Z,31.50
2018-08-06T18:15:42.743Z,31.36
2018-08-06T18:18:10.808Z,31.28
2018-08-06T18:20:38.853Z,31.17
2018-08-06T18:23:06.916Z,31.06
2018-08-06T18:25:34.986Z,30.94
2018-08-06T18:28:03.064Z,30.87
2018-08-06T18:30:31.116Z,30.79
2018-08-06T18:32:59.188Z,30.71
2018-08-06T18:35:27.248Z,30.63
2018-08-06T18:37:55.340Z,30.58
2018-08-06T18:40:23.405Z,30.53
2018-08-06T18:42:51.465Z,30.48
2018-08-06T18:45:20.829Z,30.45
2018-08-06T18:47:49.820Z,30.42
2018-08-06T18:50:18.480Z,30.35
2018-08-06T18:52:47.520Z,30.29
2018-08-06T18:55:16.049Z,30.22
2018-08-06T18:57:44.691Z,30.15
2018-08-06T19:00:21.166Z,30.08
2018-08-06T19:02:49.474Z,30.00
2018-08-06T19:05:17.641Z,29.89
2018-08-06T19:07:45.609Z,29.80
2018-08-06T19:10:13.733Z,29.74
2018-08-06T19:12:47.143Z,29.66
2018-08-06T19:15:15.256Z,29.60
2018-08-06T19:17:48.745Z,29.54
2018-08-06T19:20:16.861Z,29.44
2018-08-06T19:22:44.920Z,29.35
2018-08-06T19:25:18.274Z,29.22
2018-08-06T19:27:46.352Z,29.13
2018-08-06T19:30:14.414Z,29.04
2018-08-06T19:32:42.580Z,28.94
2018-08-06T19:35:10.707Z,28.73
2018-08-06T19:37:46.652Z,28.51
2018-08-06T19:40:15.201Z,28.43
2018-08-06T19:42:48.708Z,28.39
2018-08-06T19:45:16.816Z,28.33
2018-08-06T19:47:45.245Z,28.29
2018-08-06T19:50:50.185Z,28.10
2018-08-06T19:53:18.248Z,27.90
2018-08-06T19:55:51.737Z,27.73
2018-08-06T19:58:19.805Z,27.51
2018-08-06T20:00:47.871Z,27.36
2018-08-06T20:03:15.944Z,27.25
2018-08-06T20:05:44.000Z,27.16
2018-08-06T20:08:12.407Z,27.11
2018-08-06T20:10:40.506Z,27.04
2018-08-06T20:13:08.570Z,26.97
2018-08-06T20:15:36.616Z,26.88
2018-08-06T20:18:04.700Z,26.77
2018-08-06T20:20:32.761Z,26.68
2018-08-06T20:23:00.811Z,26.57
2018-08-06T20:25:28.864Z,26.44
2018-08-06T20:27:56.939Z,26.33
2018-08-06T20:30:25.012Z,26.23
2018-08-06T20:32:53.075Z,26.12
2018-08-06T20:35:21.218Z,26.04
2018-08-06T20:37:49.261Z,25.98
2018-08-06T20:40:17.323Z,25.93
2018-08-06T20:42:46.096Z,25.86
2018-08-06T20:45:15.719Z,25.81
2018-08-06T20:47:44.180Z,25.75
2018-08-06T20:50:14.925Z,25.70
2018-08-06T20:52:43.024Z,25.63
2018-08-06T20:55:11.600Z,25.55
2018-08-06T20:57:39.792Z,25.46
2018-08-06T21:00:10.062Z,25.40
2018-08-06T21:02:38.297Z,25.32
2018-08-06T21:05:06.416Z,25.23
2018-08-06T21:07:34.484Z,25.16
2018-08-06T21:10:02.561Z,25.10
2018-08-06T21:12:30.621Z,25.04
2018-08-06T21:14:58.715Z,24.97
2018-08-06T21:17:26.805Z,24.91
2018-08-06T21:19:54.906Z,24.85
2018-08-06T21:22:22.968Z,24.79
2018-08-06T21:24:51.044Z,24.72
2018-08-06T21:27:19.151Z,24.67
2018-08-06T21:29:47.220Z,24.63
2018-08-06T21:32:15.356Z,24.58
2018-08-06T21:34:43.428Z,24.54
2018-08-06T21:37:11.544Z,24.50
2018-08-06T21:39:39.631Z,24.44
2018-08-06T21:42:07.740Z,24.40
2018-08-06T21:44:35.834Z,24.34
2018-08-06T21:47:03.912Z,24.29
2018-08-06T21:49:31.980Z,24.25
2018-08-06T21:52:00.069Z,24.18
2018-08-06T21:54:28.114Z,24.13
2018-08-06T21:56:56.164Z,24.07
2018-08-06T21:59:24.343Z,24.01
2018-08-06T22:01:52.455Z,23.94
2018-08-06T22:04:20.516Z,23.89
2018-08-06T22:06:48.555Z,23.85
2018-08-06T22:09:16.616Z,23.81
2018-08-06T22:11:44.676Z,23.74
2018-08-06T22:14:12.783Z,23.67
2018-08-06T22:16:40.859Z,23.57
2018-08-06T22:19:10.242Z,23.54
2018-08-06T22:21:38.540Z,23.48
2018-08-06T22:24:07.104Z,23.44
2018-08-06T22:26:35.307Z,23.35
2018-08-06T22:29:03.494Z,23.30
2018-08-06T22:31:31.560Z,23.23
2018-08-06T22:33:59.758Z,23.18
2018-08-06T22:36:28.068Z,23.13
2018-08-06T22:38:56.104Z,23.09
2018-08-06T22:41:24.851Z,23.03
2018-08-06T22:43:53.087Z,22.97
2018-08-06T22:46:21.399Z,22.92
2018-08-06T22:48:49.473Z,22.87
2018-08-06T22:51:17.560Z,22.83
2018-08-06T22:53:45.609Z,22.78
2018-08-06T22:56:13.667Z,22.73
2018-08-06T22:58:41.704Z,22.67
2018-08-06T23:01:10.924Z,22.60
2018-08-06T23:03:38.979Z,22.53
2018-08-06T23:06:07.687Z,22.48
2018-08-06T23:08:35.776Z,22.44
2018-08-06T23:11:03.815Z,22.40
2018-08-06T23:13:31.887Z,22.35
2018-08-06T23:15:59.968Z,22.30
2018-08-06T23:18:28.052Z,22.23
2018-08-06T23:20:56.109Z,22.17
2018-08-06T23:23:24.182Z,22.14
2018-08-06T23:25:52.248Z,22.10
2018-08-06T23:28:20.320Z,22.05
2018-08-06T23:30:48.354Z,22.02
2018-08-06T23:33:16.417Z,21.99
2018-08-06T23:35:44.528Z,21.93
2018-08-06T23:38:12.576Z,21.87
2018-08-06T23:40:40.653Z,21.84
2018-08-06T23:43:08.712Z,21.80
2018-08-06T23:45:36.803Z,21.71
2018-08-06T23:48:05.311Z,21.64
2018-08-06T23:50:33.356Z,21.58
2018-08-06T23:53:01.460Z,21.53
2018-08-06T23:55:29.471Z,21.47
